Johannesburg, South Africa
Current Conditions -  °F | °C
As of 12:30 PM on Friday 24 Oct 2014 (Local Time) from FAOR Reporting Station
Few Clouds Few Clouds  
Wind Chill: 27°   Ceiling: Unl
Heat Index: 27°   Visibility: 6mi
Dew Point:   Wind: 7mph
Humidity: 26%   Direction: 360°N
Pressure: 30.15"   Gusts: NA
Location:  26.19°S, 28.04°E
Report Text: FAOR 241030Z 36006KT 330V040 9999 FEW045 27/06 Q1021 NOSIG
Loading
Personal Weather Stations






























Interactive Weather Map New forecast layout! Learn more

10-Day Weather Forecast

Advertisements
Track Severe Weather on mobile